createdAt,value
2018-01-19T00:00:58.792Z,100.0
2018-01-19T00:02:00.174Z,100.0
2018-01-19T00:03:01.553Z,100.0
2018-01-19T00:04:02.927Z,100.0
2018-01-19T00:05:04.307Z,100.0
2018-01-19T00:06:05.688Z,100.0
2018-01-19T00:07:07.072Z,100.0
2018-01-19T00:08:08.455Z,100.0
2018-01-19T00:09:09.836Z,100.0
2018-01-19T00:10:11.217Z,100.0
2018-01-19T00:11:12.595Z,100.0
2018-01-19T00:12:13.977Z,100.0
2018-01-19T00:13:15.360Z,100.0
2018-01-19T00:14:16.743Z,100.0
2018-01-19T00:15:18.124Z,100.0
2018-01-19T00:16:19.506Z,100.0
2018-01-19T00:17:20.886Z,100.0
2018-01-19T00:18:22.263Z,100.0
2018-01-19T00:19:23.646Z,100.0
2018-01-19T00:20:25.025Z,100.0
2018-01-19T00:21:26.404Z,100.0
2018-01-19T00:22:27.789Z,100.0
2018-01-19T00:23:29.172Z,100.0
2018-01-19T00:24:30.555Z,100.0
2018-01-19T00:25:31.933Z,100.0
2018-01-19T00:26:33.316Z,100.0
2018-01-19T00:27:34.698Z,100.0
2018-01-19T00:28:36.081Z,100.0
2018-01-19T00:29:37.463Z,100.0
2018-01-19T00:30:38.847Z,100.0
2018-01-19T00:31:40.291Z,100.0
2018-01-19T00:32:41.680Z,100.0
2018-01-19T00:33:43.061Z,100.0
2018-01-19T00:34:44.441Z,100.0
2018-01-19T00:35:45.824Z,100.0
2018-01-19T00:36:47.206Z,100.0
2018-01-19T00:37:48.588Z,100.0
2018-01-19T00:38:49.967Z,100.0
2018-01-19T00:39:51.347Z,100.0
2018-01-19T00:40:52.731Z,100.0
2018-01-19T00:41:54.111Z,100.0
2018-01-19T00:42:55.491Z,100.0
2018-01-19T00:43:56.875Z,100.0
2018-01-19T00:44:58.260Z,100.0
2018-01-19T00:45:59.639Z,100.0
2018-01-19T00:47:01.018Z,100.0
2018-01-19T00:48:02.401Z,100.0
2018-01-19T00:49:03.786Z,100.0
2018-01-19T00:50:05.163Z,100.0
2018-01-19T00:51:06.546Z,100.0
2018-01-19T00:52:07.930Z,100.0
2018-01-19T00:53:09.304Z,100.0
2018-01-19T00:54:10.683Z,100.0
2018-01-19T00:55:12.066Z,100.0
2018-01-19T00:56:13.447Z,100.0
2018-01-19T00:57:14.829Z,100.0
2018-01-19T00:58:16.207Z,100.0
2018-01-19T00:59:17.589Z,100.0
2018-01-19T01:00:18.969Z,100.0
2018-01-19T01:01:20.352Z,100.0
2018-01-19T01:02:21.734Z,100.0
2018-01-19T01:03:23.115Z,100.0
2018-01-19T01:04:24.495Z,100.0
2018-01-19T01:05:25.877Z,100.0
2018-01-19T01:06:27.260Z,100.0
2018-01-19T01:07:28.636Z,100.0
2018-01-19T01:08:30.015Z,100.0
2018-01-19T01:09:31.397Z,100.0
2018-01-19T01:10:32.775Z,100.0
2018-01-19T01:11:34.158Z,100.0
2018-01-19T01:12:35.542Z,100.0
2018-01-19T01:13:36.925Z,100.0
2018-01-19T01:14:38.309Z,100.0
2018-01-19T01:15:39.684Z,100.0
2018-01-19T01:16:41.064Z,100.0
2018-01-19T01:17:42.449Z,100.0
2018-01-19T01:18:43.827Z,100.0
2018-01-19T01:19:45.209Z,100.0
2018-01-19T01:20:46.593Z,100.0
2018-01-19T01:21:47.974Z,100.0
2018-01-19T01:22:49.358Z,100.0
2018-01-19T01:23:50.795Z,100.0
2018-01-19T01:24:52.175Z,100.0
2018-01-19T01:25:53.555Z,100.0
2018-01-19T01:26:54.937Z,100.0
2018-01-19T01:27:56.321Z,100.0
2018-01-19T01:28:57.701Z,100.0
2018-01-19T01:29:59.080Z,100.0
2018-01-19T01:31:00.459Z,100.0
2018-01-19T01:32:01.838Z,100.0
2018-01-19T01:33:03.220Z,100.0
2018-01-19T01:34:04.603Z,100.0
2018-01-19T01:35:05.988Z,100.0
2018-01-19T01:36:07.367Z,100.0
2018-01-19T01:37:08.748Z,100.0
2018-01-19T01:38:10.131Z,100.0
2018-01-19T01:39:11.514Z,100.0
2018-01-19T01:40:12.894Z,100.0
2018-01-19T01:41:14.279Z,100.0
2018-01-19T01:42:15.663Z,100.0
2018-01-19T01:43:17.041Z,100.0
2018-01-19T01:44:18.421Z,100.0
2018-01-19T01:45:19.800Z,100.0
2018-01-19T01:46:21.179Z,100.0
2018-01-19T01:47:22.561Z,100.0
2018-01-19T01:48:23.941Z,100.0
2018-01-19T01:49:25.326Z,100.0
2018-01-19T01:50:26.704Z,100.0
2018-01-19T01:51:28.084Z,100.0
2018-01-19T01:52:29.462Z,100.0
2018-01-19T01:53:30.844Z,100.0
2018-01-19T01:54:32.232Z,100.0
2018-01-19T01:55:33.609Z,100.0
2018-01-19T01:56:34.989Z,100.0
2018-01-19T01:57:36.369Z,100.0
2018-01-19T01:58:37.742Z,100.0
2018-01-19T01:59:39.124Z,100.0
2018-01-19T02:00:40.505Z,100.0
2018-01-19T02:01:41.890Z,100.0
2018-01-19T02:02:43.271Z,100.0
2018-01-19T02:03:44.655Z,100.0
2018-01-19T02:04:46.038Z,100.0
2018-01-19T02:05:47.413Z,100.0
2018-01-19T02:06:48.796Z,100.0
2018-01-19T02:07:50.176Z,100.0
2018-01-19T02:08:51.555Z,100.0
2018-01-19T02:09:52.938Z,100.0
2018-01-19T02:10:54.323Z,100.0
2018-01-19T02:11:55.700Z,100.0
2018-01-19T02:12:57.083Z,100.0
2018-01-19T02:13:58.495Z,100.0
2018-01-19T02:14:59.909Z,100.0
2018-01-19T02:16:01.294Z,100.0
2018-01-19T02:17:02.676Z,100.0
2018-01-19T02:18:04.060Z,100.0
2018-01-19T02:19:05.441Z,100.0
2018-01-19T02:20:06.836Z,100.0
2018-01-19T02:21:08.208Z,100.0
2018-01-19T02:22:09.591Z,100.0
2018-01-19T02:23:10.974Z,100.0
2018-01-19T02:24:12.355Z,100.0
2018-01-19T02:25:13.737Z,100.0
2018-01-19T02:26:15.116Z,100.0
2018-01-19T02:27:16.498Z,100.0
2018-01-19T02:28:17.880Z,100.0
2018-01-19T02:29:19.263Z,100.0
2018-01-19T02:30:20.642Z,100.0
2018-01-19T02:31:22.022Z,100.0
2018-01-19T02:32:23.409Z,100.0
2018-01-19T02:33:24.788Z,100.0
2018-01-19T02:34:26.169Z,100.0
2018-01-19T02:35:27.552Z,100.0
2018-01-19T02:36:28.931Z,100.0
2018-01-19T02:37:30.313Z,100.0
2018-01-19T02:38:31.695Z,100.0
2018-01-19T02:39:33.077Z,100.0
2018-01-19T02:40:34.456Z,100.0
2018-01-19T02:41:35.837Z,100.0
2018-01-19T02:42:37.219Z,100.0
2018-01-19T02:43:38.600Z,100.0
2018-01-19T02:44:39.981Z,100.0
2018-01-19T02:45:41.366Z,100.0
2018-01-19T02:46:42.750Z,100.0
2018-01-19T02:47:44.130Z,100.0
2018-01-19T02:48:45.510Z,100.0
2018-01-19T02:49:46.890Z,100.0
2018-01-19T02:50:48.271Z,100.0
2018-01-19T02:51:49.650Z,100.0
2018-01-19T02:52:51.033Z,100.0
2018-01-19T02:53:52.468Z,100.0
2018-01-19T02:54:53.798Z,100.0
2018-01-19T02:55:55.178Z,100.0
2018-01-19T02:56:56.559Z,100.0
2018-01-19T02:57:57.944Z,100.0
2018-01-19T02:58:59.322Z,100.0
2018-01-19T03:00:00.709Z,100.0
2018-01-19T03:01:02.092Z,100.0
2018-01-19T03:02:03.471Z,100.0
2018-01-19T03:03:04.854Z,100.0
2018-01-19T03:04:06.235Z,100.0
2018-01-19T03:05:07.644Z,100.0
2018-01-19T03:06:09.032Z,100.0
2018-01-19T03:07:10.412Z,100.0
2018-01-19T03:08:11.797Z,100.0
2018-01-19T03:09:13.184Z,100.0
2018-01-19T03:10:14.553Z,100.0
2018-01-19T03:11:15.934Z,100.0
2018-01-19T03:12:17.315Z,100.0
2018-01-19T03:13:18.698Z,100.0
2018-01-19T03:14:20.080Z,100.0
2018-01-19T03:15:21.466Z,100.0
2018-01-19T03:16:22.846Z,100.0
2018-01-19T03:17:24.226Z,100.0
2018-01-19T03:18:25.606Z,100.0
2018-01-19T03:19:26.986Z,100.0
2018-01-19T03:20:28.370Z,100.0
2018-01-19T03:21:29.749Z,100.0
2018-01-19T03:22:31.132Z,100.0
2018-01-19T03:23:32.513Z,100.0
2018-01-19T03:24:33.893Z,100.0
2018-01-19T03:25:35.275Z,100.0
2018-01-19T03:26:36.657Z,100.0
2018-01-19T03:27:38.038Z,100.0
2018-01-19T03:28:39.420Z,100.0
2018-01-19T03:29:40.805Z,100.0
2018-01-19T03:30:42.186Z,100.0
2018-01-19T03:31:43.567Z,100.0
2018-01-19T03:32:44.948Z,100.0
2018-01-19T03:33:46.326Z,100.0
2018-01-19T03:34:47.708Z,100.0
2018-01-19T03:35:49.101Z,100.0
2018-01-19T03:36:50.482Z,100.0
2018-01-19T03:37:51.860Z,100.0
2018-01-19T03:38:53.239Z,100.0
2018-01-19T03:39:54.622Z,100.0
2018-01-19T03:40:56.002Z,100.0
2018-01-19T03:41:57.384Z,100.0
2018-01-19T03:42:58.764Z,100.0
2018-01-19T03:44:00.156Z,100.0
2018-01-19T03:45:01.527Z,100.0
2018-01-19T03:46:02.909Z,100.0
2018-01-19T03:47:04.291Z,100.0
2018-01-19T03:48:05.678Z,100.0
2018-01-19T03:49:07.047Z,100.0
2018-01-19T03:50:08.431Z,100.0
2018-01-19T03:51:09.815Z,100.0
2018-01-19T03:52:11.194Z,100.0
2018-01-19T03:53:12.576Z,100.0
2018-01-19T03:54:13.954Z,100.0
2018-01-19T03:55:15.339Z,100.0
2018-01-19T03:56:16.870Z,100.0
2018-01-19T03:57:18.256Z,100.0
2018-01-19T03:58:19.640Z,100.0
2018-01-19T03:59:21.020Z,100.0
2018-01-19T04:00:22.399Z,100.0
2018-01-19T04:01:23.783Z,100.0
2018-01-19T04:02:25.164Z,100.0
2018-01-19T04:03:26.556Z,100.0
2018-01-19T04:04:27.932Z,100.0
2018-01-19T04:05:29.321Z,100.0
2018-01-19T04:06:30.701Z,100.0
2018-01-19T04:07:32.080Z,100.0
2018-01-19T04:08:33.463Z,100.0
2018-01-19T04:09:34.847Z,100.0
2018-01-19T04:10:36.227Z,100.0
2018-01-19T04:11:37.609Z,100.0
2018-01-19T04:12:38.997Z,100.0
2018-01-19T04:13:40.374Z,100.0
2018-01-19T04:14:41.751Z,100.0
2018-01-19T04:15:43.133Z,100.0
2018-01-19T04:16:44.518Z,100.0
2018-01-19T04:17:45.895Z,100.0
2018-01-19T04:18:47.279Z,100.0
2018-01-19T04:19:48.664Z,100.0
2018-01-19T04:20:50.040Z,100.0
2018-01-19T04:21:51.424Z,100.0
2018-01-19T04:22:52.801Z,100.0
2018-01-19T04:23:54.183Z,100.0
2018-01-19T04:24:55.561Z,100.0
2018-01-19T04:25:56.947Z,100.0
2018-01-19T04:26:58.330Z,100.0
2018-01-19T04:27:59.711Z,100.0
2018-01-19T04:29:01.094Z,100.0
2018-01-19T04:30:02.482Z,100.0
2018-01-19T04:31:03.867Z,100.0
2018-01-19T04:32:05.248Z,100.0
2018-01-19T04:33:06.628Z,100.0
2018-01-19T04:34:08.009Z,100.0
2018-01-19T04:35:09.392Z,100.0
2018-01-19T04:36:10.777Z,100.0
2018-01-19T04:37:12.167Z,100.0
2018-01-19T04:38:13.541Z,100.0
2018-01-19T04:39:14.923Z,100.0
2018-01-19T04:40:16.308Z,100.0
2018-01-19T04:41:17.691Z,100.0
2018-01-19T04:42:19.072Z,100.0
2018-01-19T04:43:20.455Z,100.0
2018-01-19T04:44:21.839Z,100.0
2018-01-19T04:45:23.222Z,100.0
2018-01-19T04:46:24.621Z,100.0
2018-01-19T04:47:26.068Z,100.0
2018-01-19T04:48:27.452Z,100.0
2018-01-19T04:49:28.828Z,100.0
2018-01-19T04:50:30.209Z,100.0
2018-01-19T04:51:31.592Z,100.0
2018-01-19T04:52:32.970Z,100.0
2018-01-19T04:53:34.354Z,100.0
2018-01-19T04:54:35.737Z,100.0
2018-01-19T04:55:37.118Z,100.0
2018-01-19T04:56:38.494Z,100.0
2018-01-19T04:57:39.877Z,100.0
2018-01-19T04:58:41.260Z,100.0
2018-01-19T04:59:42.642Z,100.0
2018-01-19T05:00:44.025Z,100.0
2018-01-19T05:01:45.452Z,100.0
2018-01-19T05:02:46.789Z,100.0
2018-01-19T05:03:48.167Z,100.0
2018-01-19T05:04:49.550Z,100.0
2018-01-19T05:05:50.932Z,100.0
2018-01-19T05:06:52.358Z,100.0
2018-01-19T05:07:53.696Z,100.0
2018-01-19T05:08:55.081Z,100.0
2018-01-19T05:09:56.464Z,100.0
2018-01-19T05:10:57.843Z,100.0
2018-01-19T05:11:59.221Z,100.0
2018-01-19T05:13:00.603Z,100.0
2018-01-19T05:14:02.013Z,100.0
2018-01-19T05:15:03.393Z,100.0
2018-01-19T05:16:04.776Z,100.0
2018-01-19T05:17:06.159Z,100.0
2018-01-19T05:18:07.539Z,100.0
2018-01-19T05:19:08.919Z,100.0
2018-01-19T05:20:10.301Z,100.0
2018-01-19T05:21:11.683Z,100.0
2018-01-19T05:22:13.067Z,100.0
2018-01-19T05:23:14.449Z,100.0
2018-01-19T05:24:15.829Z,100.0
2018-01-19T05:25:17.209Z,100.0
2018-01-19T05:26:18.588Z,100.0
2018-01-19T05:27:19.970Z,100.0
2018-01-19T05:28:21.353Z,100.0
2018-01-19T05:29:22.735Z,100.0
2018-01-19T05:30:24.121Z,100.0
2018-01-19T05:31:25.508Z,100.0
2018-01-19T05:32:26.888Z,100.0
2018-01-19T05:33:28.270Z,100.0
2018-01-19T05:34:29.651Z,100.0
2018-01-19T05:35:31.031Z,100.0
2018-01-19T05:36:32.411Z,100.0
2018-01-19T05:37:33.933Z,100.0
2018-01-19T05:38:35.327Z,100.0
2018-01-19T05:39:36.709Z,100.0
2018-01-19T05:40:38.088Z,100.0
2018-01-19T05:41:39.469Z,100.0
2018-01-19T05:42:40.850Z,100.0
2018-01-19T05:43:42.231Z,100.0
2018-01-19T05:44:43.613Z,100.0
2018-01-19T05:45:44.997Z,100.0
2018-01-19T05:46:46.383Z,100.0
2018-01-19T05:47:47.764Z,100.0
2018-01-19T05:48:49.146Z,100.0
2018-01-19T05:49:50.525Z,100.0
2018-01-19T05:50:51.908Z,100.0
2018-01-19T05:51:53.287Z,100.0
2018-01-19T05:52:54.669Z,100.0
2018-01-19T05:53:56.050Z,100.0
2018-01-19T05:54:57.428Z,100.0
2018-01-19T05:55:58.812Z,100.0
2018-01-19T05:57:00.190Z,100.0
2018-01-19T05:58:01.576Z,100.0
2018-01-19T05:59:02.963Z,100.0
2018-01-19T06:00:04.340Z,100.0
2018-01-19T06:01:05.719Z,100.0
2018-01-19T06:02:07.098Z,100.0
2018-01-19T06:03:08.529Z,100.0
2018-01-19T06:04:09.861Z,100.0
2018-01-19T06:05:11.241Z,100.0
2018-01-19T06:06:12.620Z,100.0
2018-01-19T06:07:14.005Z,100.0
2018-01-19T06:08:15.384Z,100.0
2018-01-19T06:09:16.766Z,100.0
2018-01-19T06:10:18.143Z,100.0
2018-01-19T06:11:19.527Z,100.0
2018-01-19T06:12:20.908Z,100.0
2018-01-19T06:13:22.293Z,100.0
2018-01-19T06:14:23.676Z,100.0
2018-01-19T06:15:25.057Z,100.0
2018-01-19T06:16:26.435Z,100.0
2018-01-19T06:17:27.815Z,100.0
2018-01-19T06:18:29.198Z,100.0
2018-01-19T06:19:30.581Z,100.0
2018-01-19T06:20:31.960Z,100.0
2018-01-19T06:21:33.342Z,100.0
2018-01-19T06:22:34.726Z,100.0
2018-01-19T06:23:36.102Z,100.0
2018-01-19T06:24:37.488Z,100.0
2018-01-19T06:25:38.869Z,100.0
2018-01-19T06:26:40.249Z,100.0
2018-01-19T06:27:41.694Z,100.0
2018-01-19T06:28:43.101Z,100.0
2018-01-19T06:29:44.479Z,100.0
2018-01-19T06:30:45.857Z,100.0
2018-01-19T06:31:47.239Z,100.0
2018-01-19T06:32:48.623Z,100.0
2018-01-19T06:33:50.002Z,100.0
2018-01-19T06:34:51.384Z,100.0
2018-01-19T06:35:52.771Z,100.0
2018-01-19T06:36:54.152Z,100.0
2018-01-19T06:37:55.526Z,100.0
2018-01-19T06:38:56.908Z,100.0
2018-01-19T06:39:58.290Z,100.0
2018-01-19T06:40:59.668Z,100.0
2018-01-19T06:42:01.049Z,100.0
2018-01-19T06:43:02.433Z,100.0
2018-01-19T06:44:03.811Z,100.0
2018-01-19T06:45:05.196Z,100.0
2018-01-19T06:46:06.570Z,100.0
2018-01-19T06:47:07.951Z,100.0
2018-01-19T06:48:09.333Z,100.0
2018-01-19T06:49:10.713Z,100.0
2018-01-19T06:50:12.101Z,100.0
2018-01-19T06:51:13.478Z,100.0
2018-01-19T06:52:14.856Z,100.0
2018-01-19T06:53:16.248Z,100.0
2018-01-19T06:54:17.627Z,100.0
2018-01-19T06:55:19.009Z,100.0
2018-01-19T06:56:20.390Z,100.0
2018-01-19T06:57:21.775Z,100.0
2018-01-19T06:58:23.155Z,100.0
2018-01-19T06:59:24.533Z,100.0
2018-01-19T07:00:26.059Z,100.0
2018-01-19T07:01:27.879Z,100.0
2018-01-19T07:02:29.585Z,100.0
2018-01-19T07:03:31.402Z,100.0
2018-01-19T07:04:32.900Z,100.0
2018-01-19T07:05:34.250Z,100.0
2018-01-19T07:06:35.632Z,100.0
2018-01-19T07:07:37.014Z,100.0
2018-01-19T07:08:38.395Z,100.0
2018-01-19T07:09:39.778Z,100.0
2018-01-19T07:10:41.161Z,100.0
2018-01-19T07:11:42.541Z,100.0
2018-01-19T07:12:43.925Z,100.0
2018-01-19T07:13:45.304Z,100.0
2018-01-19T07:14:46.685Z,100.0
2018-01-19T07:15:48.074Z,100.0
2018-01-19T07:16:49.558Z,100.0
2018-01-19T07:17:50.958Z,100.0
2018-01-19T07:18:52.361Z,100.0
2018-01-19T07:19:53.720Z,100.0
2018-01-19T07:20:55.100Z,100.0
2018-01-19T07:21:56.479Z,100.0
2018-01-19T07:22:57.862Z,100.0
2018-01-19T07:23:59.246Z,100.0
2018-01-19T07:25:00.632Z,100.0
2018-01-19T07:26:02.017Z,100.0
2018-01-19T07:27:03.395Z,100.0
2018-01-19T07:28:04.779Z,100.0
2018-01-19T07:29:06.160Z,100.0
2018-01-19T07:30:07.543Z,100.0
2018-01-19T07:31:08.926Z,100.0
2018-01-19T07:32:10.309Z,100.0
2018-01-19T07:33:11.692Z,100.0
2018-01-19T07:34:13.073Z,100.0
2018-01-19T07:35:14.457Z,100.0
2018-01-19T07:36:15.840Z,100.0
2018-01-19T07:37:17.224Z,100.0
2018-01-19T07:38:18.608Z,100.0
2018-01-19T07:39:19.990Z,100.0
2018-01-19T07:40:21.378Z,100.0
2018-01-19T07:41:22.760Z,100.0
2018-01-19T07:42:24.140Z,100.0
2018-01-19T07:43:25.525Z,100.0
2018-01-19T07:44:26.905Z,100.0
2018-01-19T07:45:28.288Z,100.0
2018-01-19T07:46:29.672Z,100.0
2018-01-19T07:47:31.057Z,100.0
2018-01-19T07:48:32.439Z,100.0
2018-01-19T07:49:33.821Z,100.0
2018-01-19T07:50:35.207Z,100.0
2018-01-19T07:51:36.589Z,100.0
2018-01-19T07:52:37.974Z,100.0
2018-01-19T07:53:39.357Z,100.0
2018-01-19T07:54:40.744Z,100.0
2018-01-19T07:55:42.127Z,100.0
2018-01-19T07:56:43.511Z,100.0
2018-01-19T07:57:44.897Z,100.0
2018-01-19T07:58:46.282Z,100.0
2018-01-19T07:59:47.668Z,100.0
2018-01-19T08:00:49.055Z,100.0
2018-01-19T08:01:50.439Z,100.0
2018-01-19T08:02:51.825Z,100.0
2018-01-19T08:03:53.210Z,100.0
2018-01-19T08:04:54.594Z,100.0
2018-01-19T08:05:55.976Z,100.0
2018-01-19T08:06:57.453Z,100.0
2018-01-19T08:07:58.887Z,100.0
2018-01-19T08:09:00.277Z,100.0
2018-01-19T08:10:01.657Z,100.0
2018-01-19T08:11:03.043Z,100.0
2018-01-19T08:12:04.429Z,100.0
2018-01-19T08:13:05.812Z,100.0
2018-01-19T08:14:07.203Z,100.0
2018-01-19T08:15:08.584Z,100.0
2018-01-19T08:16:09.970Z,100.0
2018-01-19T08:17:11.353Z,100.0
2018-01-19T08:18:12.736Z,100.0
2018-01-19T08:19:14.123Z,100.0
2018-01-19T08:20:15.509Z,100.0
2018-01-19T08:21:16.898Z,100.0
2018-01-19T08:22:18.280Z,100.0
2018-01-19T08:23:19.666Z,100.0
2018-01-19T08:24:21.049Z,100.0
2018-01-19T08:25:22.430Z,100.0
2018-01-19T08:26:23.815Z,100.0
2018-01-19T08:27:25.199Z,100.0
2018-01-19T08:28:26.586Z,100.0
2018-01-19T08:29:27.971Z,100.0
2018-01-19T08:30:29.359Z,100.0
2018-01-19T08:31:30.746Z,100.0
2018-01-19T08:32:32.129Z,100.0
2018-01-19T08:33:33.515Z,100.0
2018-01-19T08:34:34.898Z,100.0
2018-01-19T08:35:36.283Z,100.0
2018-01-19T08:36:37.673Z,100.0
2018-01-19T08:37:39.057Z,100.0
2018-01-19T08:38:40.441Z,100.0
2018-01-19T08:39:41.823Z,100.0
2018-01-19T08:40:43.207Z,100.0
2018-01-19T08:41:44.592Z,100.0
2018-01-19T08:42:45.979Z,100.0
2018-01-19T08:43:47.364Z,100.0
2018-01-19T08:44:48.748Z,100.0
2018-01-19T08:45:50.134Z,100.0
2018-01-19T08:46:51.514Z,100.0
2018-01-19T08:47:52.905Z,100.0
2018-01-19T08:48:54.289Z,100.0
2018-01-19T08:49:55.684Z,100.0
2018-01-19T08:50:57.080Z,100.0
2018-01-19T08:51:58.467Z,100.0
2018-01-19T08:52:59.852Z,99.9
2018-01-19T08:54:01.244Z,99.6
2018-01-19T08:55:02.650Z,99.7
2018-01-19T08:56:04.013Z,99.7
2018-01-19T08:57:05.399Z,99.6
2018-01-19T08:58:06.864Z,100.0
2018-01-19T08:59:08.250Z,99.4
2018-01-19T09:00:09.632Z,99.5
2018-01-19T09:01:11.015Z,99.7
2018-01-19T09:02:12.400Z,99.7
2018-01-19T09:03:13.783Z,99.7
2018-01-19T09:04:15.169Z,99.4
2018-01-19T09:05:16.553Z,99.2
2018-01-19T09:06:17.939Z,99.4
2018-01-19T09:07:19.327Z,99.5
2018-01-19T09:08:20.706Z,99.5
2018-01-19T09:09:22.091Z,99.3
2018-01-19T09:10:23.478Z,99.2
2018-01-19T09:11:24.864Z,98.9
2018-01-19T09:12:26.250Z,98.9
2018-01-19T09:13:27.639Z,98.8
2018-01-19T09:14:29.022Z,98.8
2018-01-19T09:15:30.407Z,98.5
2018-01-19T09:16:31.793Z,99.1
2018-01-19T09:17:33.175Z,98.1
2018-01-19T09:18:34.561Z,98.4
2018-01-19T09:19:35.950Z,98.2
2018-01-19T09:20:37.336Z,98.4
2018-01-19T09:21:38.720Z,98.7
2018-01-19T09:22:40.105Z,98.8
2018-01-19T09:23:41.489Z,98.4
2018-01-19T09:24:42.879Z,97.6
2018-01-19T09:25:44.272Z,98.2
2018-01-19T09:26:45.653Z,97.8
2018-01-19T09:27:47.041Z,97.4
2018-01-19T09:28:48.425Z,97.8
2018-01-19T09:29:49.809Z,97.6
2018-01-19T09:30:51.196Z,97.6
2018-01-19T09:31:52.580Z,98.0
2018-01-19T09:32:53.966Z,98.0
2018-01-19T09:33:55.352Z,98.0
2018-01-19T09:34:56.739Z,97.5
2018-01-19T09:35:58.124Z,97.2
2018-01-19T09:36:59.509Z,97.5
2018-01-19T09:38:00.891Z,98.1
2018-01-19T09:39:02.280Z,97.8
2018-01-19T09:40:03.666Z,98.0
2018-01-19T09:41:05.050Z,97.4
2018-01-19T09:42:06.435Z,97.4
2018-01-19T09:43:07.817Z,98.1
2018-01-19T09:44:09.201Z,98.0
2018-01-19T09:45:10.586Z,97.8
2018-01-19T09:46:11.971Z,97.8
2018-01-19T09:47:13.359Z,97.8
2018-01-19T09:48:14.766Z,97.3
2018-01-19T09:49:16.170Z,98.1
2018-01-19T09:50:17.557Z,98.1
2018-01-19T09:51:18.942Z,97.9
2018-01-19T09:52:20.328Z,98.1
2018-01-19T09:53:21.710Z,98.3
2018-01-19T09:54:23.096Z,97.8
2018-01-19T09:55:24.481Z,98.1
2018-01-19T09:56:25.866Z,98.8
2018-01-19T09:57:27.250Z,98.3
2018-01-19T09:58:28.642Z,98.0
2018-01-19T09:59:30.029Z,98.3
2018-01-19T10:00:31.414Z,98.3
2018-01-19T10:01:32.800Z,98.3
2018-01-19T10:02:34.210Z,97.8
2018-01-19T10:03:35.628Z,98.1
2018-01-19T10:04:37.053Z,97.9
2018-01-19T10:05:38.451Z,97.9
2018-01-19T10:06:39.856Z,98.0
2018-01-19T10:07:41.243Z,97.3
2018-01-19T10:08:42.627Z,97.3
2018-01-19T10:09:44.014Z,97.1
2018-01-19T10:10:45.400Z,97.4
2018-01-19T10:11:46.783Z,97.0
2018-01-19T10:12:48.166Z,97.5
2018-01-19T10:13:49.553Z,97.4
2018-01-19T10:14:50.940Z,96.4
2018-01-19T10:15:52.330Z,96.2
2018-01-19T10:16:53.715Z,96.1
2018-01-19T10:17:55.105Z,96.3
2018-01-19T10:18:56.534Z,95.8
2018-01-19T10:19:58.017Z,96.1
2018-01-19T10:20:59.425Z,95.6
2018-01-19T10:22:00.807Z,95.0
2018-01-19T10:23:02.197Z,94.7
2018-01-19T10:24:03.586Z,94.5
2018-01-19T10:25:04.973Z,94.3
2018-01-19T10:26:06.358Z,94.2
2018-01-19T10:27:07.743Z,94.1
2018-01-19T10:28:09.142Z,93.8
2018-01-19T10:29:10.549Z,93.3
2018-01-19T10:30:11.938Z,94.3
2018-01-19T10:31:13.324Z,93.8
2018-01-19T10:32:14.713Z,94.2
2018-01-19T10:33:16.100Z,93.5
2018-01-19T10:34:17.487Z,93.3
2018-01-19T10:35:18.878Z,92.2
2018-01-19T10:36:20.259Z,92.0
2018-01-19T10:37:21.647Z,92.4
2018-01-19T10:38:23.105Z,91.9
2018-01-19T10:39:24.491Z,91.7
2018-01-19T10:40:25.904Z,92.0
2018-01-19T10:41:27.286Z,92.9
2018-01-19T10:42:28.677Z,93.0
2018-01-19T10:43:30.059Z,93.1
2018-01-19T10:44:31.450Z,92.5
2018-01-19T10:45:32.835Z,92.2
2018-01-19T10:46:34.260Z,93.2
2018-01-19T10:47:35.648Z,93.6
2018-01-19T10:48:37.034Z,93.0
2018-01-19T10:49:38.426Z,92.3
2018-01-19T10:50:39.828Z,92.1
2018-01-19T10:51:41.219Z,91.6
2018-01-19T10:52:42.602Z,91.6
2018-01-19T10:53:43.990Z,91.6
2018-01-19T10:54:45.376Z,91.0
2018-01-19T10:55:46.763Z,91.9
2018-01-19T10:56:48.146Z,92.2
2018-01-19T10:57:49.536Z,92.0
2018-01-19T10:58:50.922Z,91.5
2018-01-19T10:59:52.318Z,91.6
2018-01-19T11:00:53.707Z,91.6
2018-01-19T11:01:55.095Z,91.1
2018-01-19T11:02:56.486Z,91.6
2018-01-19T11:03:57.872Z,91.0
2018-01-19T11:04:59.263Z,90.9
2018-01-19T11:06:00.652Z,90.2
2018-01-19T11:07:02.042Z,90.3
2018-01-19T11:08:03.434Z,89.0
2018-01-19T11:09:04.859Z,89.1
2018-01-19T11:10:06.248Z,88.6
2018-01-19T11:11:07.636Z,88.0
2018-01-19T11:12:09.024Z,88.2
2018-01-19T11:13:10.414Z,87.2
2018-01-19T11:14:11.805Z,87.0
2018-01-19T11:15:13.195Z,87.6
2018-01-19T11:16:14.584Z,86.6
2018-01-19T11:17:15.973Z,86.8
2018-01-19T11:18:17.365Z,86.1
2018-01-19T11:19:18.757Z,85.5
2018-01-19T11:20:20.149Z,85.6
2018-01-19T11:21:21.538Z,85.1
2018-01-19T11:22:22.935Z,85.2
2018-01-19T11:23:24.323Z,84.0
2018-01-19T11:24:25.715Z,83.2
2018-01-19T11:25:27.104Z,83.0
2018-01-19T11:26:28.494Z,82.6
2018-01-19T11:27:29.887Z,80.8
2018-01-19T11:28:31.291Z,80.2
2018-01-19T11:29:32.696Z,80.4
2018-01-19T11:30:34.103Z,81.3
2018-01-19T11:31:35.494Z,80.9
2018-01-19T11:32:36.884Z,81.2
2018-01-19T11:33:38.279Z,80.4
2018-01-19T11:34:39.667Z,79.6
2018-01-19T11:35:41.057Z,79.0
2018-01-19T11:36:42.459Z,79.0
2018-01-19T11:37:43.846Z,78.8
2018-01-19T11:38:45.235Z,78.5
2018-01-19T11:39:46.623Z,78.3
2018-01-19T11:40:48.014Z,78.0
2018-01-19T11:41:49.401Z,77.9
2018-01-19T11:42:50.792Z,78.6
2018-01-19T11:43:52.187Z,80.3
2018-01-19T11:44:53.574Z,81.5
2018-01-19T11:45:54.963Z,80.7
2018-01-19T11:46:56.356Z,81.5
2018-01-19T11:47:57.747Z,82.5
2018-01-19T11:48:59.136Z,82.2
2018-01-19T11:50:00.528Z,81.5
2018-01-19T11:51:01.926Z,81.7
2018-01-19T11:52:03.315Z,81.7
2018-01-19T11:53:04.703Z,81.6
2018-01-19T11:54:06.094Z,80.2
2018-01-19T11:55:07.484Z,80.4
2018-01-19T11:56:08.874Z,80.5
2018-01-19T11:57:10.265Z,80.6
2018-01-19T11:58:11.656Z,81.0
2018-01-19T11:59:13.046Z,81.5
2018-01-19T12:00:14.436Z,80.6
2018-01-19T12:01:15.824Z,78.6
2018-01-19T12:02:17.295Z,76.7
2018-01-19T12:03:18.683Z,76.5
2018-01-19T12:04:20.075Z,74.3
2018-01-19T12:05:21.469Z,71.9
2018-01-19T12:06:22.860Z,71.3
2018-01-19T12:07:24.254Z,70.8
2018-01-19T12:08:25.644Z,70.2
2018-01-19T12:09:27.041Z,68.8
2018-01-19T12:10:28.433Z,69.1
2018-01-19T12:11:29.827Z,69.0
2018-01-19T12:12:31.243Z,66.9
2018-01-19T12:13:32.634Z,64.6
2018-01-19T12:14:34.029Z,64.4
2018-01-19T12:15:35.425Z,64.3
2018-01-19T12:16:36.824Z,63.5
2018-01-19T12:17:38.218Z,63.6
2018-01-19T12:18:39.726Z,63.2
2018-01-19T12:19:41.145Z,64.1
2018-01-19T12:20:42.538Z,64.4
2018-01-19T12:21:43.937Z,63.8
2018-01-19T12:22:45.333Z,62.7
2018-01-19T12:23:46.728Z,62.4
2018-01-19T12:24:48.123Z,62.0
2018-01-19T12:25:49.521Z,62.0
2018-01-19T12:26:50.918Z,62.3
2018-01-19T12:27:52.316Z,62.8
2018-01-19T12:28:53.711Z,61.9
2018-01-19T12:29:55.111Z,62.5
2018-01-19T12:30:56.513Z,60.2
2018-01-19T12:31:57.906Z,60.0
2018-01-19T12:32:59.303Z,60.4
2018-01-19T12:34:00.703Z,61.6
2018-01-19T12:35:02.100Z,61.7
2018-01-19T12:36:03.494Z,60.9
2018-01-19T12:37:04.887Z,59.7
2018-01-19T12:38:06.283Z,62.7
2018-01-19T12:39:07.679Z,67.2
2018-01-19T12:40:09.077Z,69.2
2018-01-19T12:41:10.472Z,70.2
2018-01-19T12:42:11.862Z,71.0
2018-01-19T12:43:13.262Z,71.5
2018-01-19T12:44:14.657Z,67.9
2018-01-19T12:45:16.049Z,65.7
2018-01-19T12:46:17.443Z,68.4
2018-01-19T12:47:18.840Z,69.0
2018-01-19T12:48:20.239Z,66.1
2018-01-19T12:49:21.629Z,65.4
2018-01-19T12:50:23.023Z,68.7
2018-01-19T12:51:24.584Z,71.2
2018-01-19T12:52:25.976Z,72.3
2018-01-19T12:53:27.361Z,72.6
2018-01-19T12:54:28.754Z,74.6
2018-01-19T12:55:30.147Z,74.9
2018-01-19T12:56:31.536Z,75.9
2018-01-19T12:57:32.929Z,76.4
2018-01-19T12:58:34.318Z,72.5
2018-01-19T12:59:35.710Z,70.0
2018-01-19T13:00:37.098Z,69.5
2018-01-19T13:01:38.490Z,71.0
2018-01-19T13:02:39.884Z,70.6
2018-01-19T13:03:41.271Z,71.2
2018-01-19T13:04:42.660Z,72.4
2018-01-19T13:05:44.050Z,74.5
2018-01-19T13:06:45.489Z,74.9
2018-01-19T13:07:46.921Z,76.0
2018-01-19T13:08:48.318Z,76.5
2018-01-19T13:09:49.705Z,77.2
2018-01-19T13:10:51.102Z,77.3
2018-01-19T13:11:52.484Z,77.6
2018-01-19T13:12:53.872Z,77.7
2018-01-19T13:13:55.261Z,78.1
2018-01-19T13:14:56.650Z,78.6
2018-01-19T13:15:58.041Z,78.2
2018-01-19T13:16:59.432Z,79.3
2018-01-19T13:18:00.818Z,78.1
2018-01-19T13:19:02.209Z,77.6
2018-01-19T13:20:03.598Z,77.6